sensor_id;sensor_type;location;lat;lon;timestamp;pressure;altitude;pressure_sealevel;temperature
13304;BMP280;6720;51.958;4.540;2022-09-24T00:01:10;101036.69;;;14.67
13304;BMP280;6720;51.958;4.540;2022-09-24T00:03:37;101060.88;;;14.82
13304;BMP280;6720;51.958;4.540;2022-09-24T00:06:05;101063.41;;;14.85
13304;BMP280;6720;51.958;4.540;2022-09-24T00:08:31;101053.66;;;14.87
13304;BMP280;6720;51.958;4.540;2022-09-24T00:11:01;101020.97;;;14.64
13304;BMP280;6720;51.958;4.540;2022-09-24T00:13:27;101050.22;;;14.85
13304;BMP280;6720;51.958;4.540;2022-09-24T00:15:52;101043.16;;;14.85
13304;BMP280;6720;51.958;4.540;2022-09-24T00:18:18;101045.75;;;14.87
13304;BMP280;6720;51.958;4.540;2022-09-24T00:20:45;101013.81;;;14.69
13304;BMP280;6720;51.958;4.540;2022-09-24T00:23:11;101046.59;;;14.89
13304;BMP280;6720;51.958;4.540;2022-09-24T00:25:46;101038.06;;;14.81
13304;BMP280;6720;51.958;4.540;2022-09-24T00:28:31;101039.69;;;14.85
13304;BMP280;6720;51.958;4.540;2022-09-24T00:30:58;101034.34;;;14.88
13304;BMP280;6720;51.958;4.540;2022-09-24T00:33:27;101034.69;;;14.75
13304;BMP280;6720;51.958;4.540;2022-09-24T00:35:57;101029.28;;;14.80
13304;BMP280;6720;51.958;4.540;2022-09-24T00:38:22;101034.41;;;14.85
13304;BMP280;6720;51.958;4.540;2022-09-24T00:40:49;101031.97;;;14.78
13304;BMP280;6720;51.958;4.540;2022-09-24T00:43:41;101024.13;;;14.75
13304;BMP280;6720;51.958;4.540;2022-09-24T00:46:16;101009.34;;;14.71
13304;BMP280;6720;51.958;4.540;2022-09-24T00:48:48;101015.13;;;14.82
13304;BMP280;6720;51.958;4.540;2022-09-24T00:51:19;101024.66;;;14.87
13304;BMP280;6720;51.958;4.540;2022-09-24T00:53:48;101038.59;;;14.92
13304;BMP280;6720;51.958;4.540;2022-09-24T00:56:16;101022.16;;;14.84
13304;BMP280;6720;51.958;4.540;2022-09-24T00:58:45;101025.59;;;14.86
13304;BMP280;6720;51.958;4.540;2022-09-24T01:01:12;101024.94;;;14.79
13304;BMP280;6720;51.958;4.540;2022-09-24T01:03:39;101025.69;;;14.82
13304;BMP280;6720;51.958;4.540;2022-09-24T01:06:09;101027.31;;;14.87
13304;BMP280;6720;51.958;4.540;2022-09-24T01:08:35;101016.66;;;14.90
13304;BMP280;6720;51.958;4.540;2022-09-24T01:21:37;101011.50;;;14.87
13304;BMP280;6720;51.958;4.540;2022-09-24T01:24:27;101010.91;;;14.77
13304;BMP280;6720;51.958;4.540;2022-09-24T01:27:05;100965.94;;;14.55
13304;BMP280;6720;51.958;4.540;2022-09-24T01:32:27;100968.38;;;14.61
13304;BMP280;6720;51.958;4.540;2022-09-24T01:34:59;100972.75;;;14.62
13304;BMP280;6720;51.958;4.540;2022-09-24T01:37:28;100965.97;;;14.54
13304;BMP280;6720;51.958;4.540;2022-09-24T01:39:57;100994.13;;;14.79
13304;BMP280;6720;51.958;4.540;2022-09-24T01:42:24;100997.50;;;14.85
13304;BMP280;6720;51.958;4.540;2022-09-24T01:44:51;100994.63;;;14.92
13304;BMP280;6720;51.958;4.540;2022-09-24T01:47:28;100978.13;;;14.86
13304;BMP280;6720;51.958;4.540;2022-09-24T01:49:54;100993.03;;;14.87
13304;BMP280;6720;51.958;4.540;2022-09-24T01:52:24;100988.63;;;14.87
13304;BMP280;6720;51.958;4.540;2022-09-24T01:54:53;100986.88;;;14.88
13304;BMP280;6720;51.958;4.540;2022-09-24T01:57:23;100979.06;;;14.85
13304;BMP280;6720;51.958;4.540;2022-09-24T01:59:58;100977.53;;;14.77
13304;BMP280;6720;51.958;4.540;2022-09-24T02:02:49;100935.19;;;14.56
13304;BMP280;6720;51.958;4.540;2022-09-24T02:08:05;100958.13;;;14.80
13304;BMP280;6720;51.958;4.540;2022-09-24T02:10:37;100963.38;;;14.80
13304;BMP280;6720;51.958;4.540;2022-09-24T02:13:06;100956.53;;;14.74
13304;BMP280;6720;51.958;4.540;2022-09-24T02:15:37;100951.16;;;14.77
13304;BMP280;6720;51.958;4.540;2022-09-24T02:18:08;100951.97;;;14.79
13304;BMP280;6720;51.958;4.540;2022-09-24T02:20:37;100915.84;;;14.57
13304;BMP280;6720;51.958;4.540;2022-09-24T02:23:04;100943.25;;;14.77
13304;BMP280;6720;51.958;4.540;2022-09-24T02:28:05;100944.88;;;14.82
13304;BMP280;6720;51.958;4.540;2022-09-24T02:30:39;100943.34;;;14.74
13304;BMP280;6720;51.958;4.540;2022-09-24T02:33:08;100906.41;;;14.50
13304;BMP280;6720;51.958;4.540;2022-09-24T02:35:54;100945.19;;;14.73
13304;BMP280;6720;51.958;4.540;2022-09-24T02:38:19;100947.66;;;14.77
13304;BMP280;6720;51.958;4.540;2022-09-24T02:40:46;100937.03;;;14.80
13304;BMP280;6720;51.958;4.540;2022-09-24T02:43:12;100950.06;;;14.85
13304;BMP280;6720;51.958;4.540;2022-09-24T02:45:37;100941.19;;;14.87
13304;BMP280;6720;51.958;4.540;2022-09-24T02:48:03;100939.53;;;14.85
13304;BMP280;6720;51.958;4.540;2022-09-24T02:50:28;100946.41;;;14.89
13304;BMP280;6720;51.958;4.540;2022-09-24T02:52:53;100938.59;;;14.86
13304;BMP280;6720;51.958;4.540;2022-09-24T02:55:19;100947.25;;;14.89
13304;BMP280;6720;51.958;4.540;2022-09-24T02:57:44;100944.56;;;14.91
13304;BMP280;6720;51.958;4.540;2022-09-24T03:00:11;100948.34;;;14.84
13304;BMP280;6720;51.958;4.540;2022-09-24T03:02:36;100944.88;;;14.82
13304;BMP280;6720;51.958;4.540;2022-09-24T03:05:01;100938.00;;;14.77
13304;BMP280;6720;51.958;4.540;2022-09-24T03:07:27;100938.78;;;14.79
13304;BMP280;6720;51.958;4.540;2022-09-24T03:09:52;100934.75;;;14.69
13304;BMP280;6720;51.958;4.540;2022-09-24T03:12:17;100932.16;;;14.68
13304;BMP280;6720;51.958;4.540;2022-09-24T03:14:43;100933.13;;;14.65
13304;BMP280;6720;51.958;4.540;2022-09-24T03:17:08;100932.13;;;14.69
13304;BMP280;6720;51.958;4.540;2022-09-24T03:19:33;100929.25;;;14.75
13304;BMP280;6720;51.958;4.540;2022-09-24T03:21:59;100936.16;;;14.79
13304;BMP280;6720;51.958;4.540;2022-09-24T03:24:24;100926.53;;;14.78
13304;BMP280;6720;51.958;4.540;2022-09-24T03:26:50;100930.69;;;14.86
13304;BMP280;6720;51.958;4.540;2022-09-24T03:29:15;100928.00;;;14.87
13304;BMP280;6720;51.958;4.540;2022-09-24T03:31:40;100930.50;;;14.92
13304;BMP280;6720;51.958;4.540;2022-09-24T03:34:06;100909.94;;;14.77
13304;BMP280;6720;51.958;4.540;2022-09-24T03:36:31;100925.63;;;14.79
13304;BMP280;6720;51.958;4.540;2022-09-24T03:39:15;100924.50;;;14.87
13304;BMP280;6720;51.958;4.540;2022-09-24T03:41:49;100925.34;;;14.89
13304;BMP280;6720;51.958;4.540;2022-09-24T03:44:14;100919.13;;;14.90
13304;BMP280;6720;51.958;4.540;2022-09-24T03:46:39;100919.97;;;14.92
13304;BMP280;6720;51.958;4.540;2022-09-24T03:49:05;100918.13;;;14.94
13304;BMP280;6720;51.958;4.540;2022-09-24T03:51:30;100924.13;;;14.99
13304;BMP280;6720;51.958;4.540;2022-09-24T03:53:55;100928.47;;;15.00
13304;BMP280;6720;51.958;4.540;2022-09-24T03:56:21;100927.59;;;14.99
13304;BMP280;6720;51.958;4.540;2022-09-24T03:58:46;100925.84;;;15.00
13304;BMP280;6720;51.958;4.540;2022-09-24T04:01:12;100936.28;;;15.03
13304;BMP280;6720;51.958;4.540;2022-09-24T04:03:38;100937.19;;;15.02
13304;BMP280;6720;51.958;4.540;2022-09-24T04:06:04;100931.84;;;15.03
13304;BMP280;6720;51.958;4.540;2022-09-24T04:08:30;100928.25;;;15.06
13304;BMP280;6720;51.958;4.540;2022-09-24T04:10:56;100925.09;;;14.95
13304;BMP280;6720;51.958;4.540;2022-09-24T04:13:22;100921.59;;;14.96
13304;BMP280;6720;51.958;4.540;2022-09-24T04:15:47;100925.09;;;14.95
13304;BMP280;6720;51.958;4.540;2022-09-24T04:18:14;100926.94;;;14.93
13304;BMP280;6720;51.958;4.540;2022-09-24T04:20:40;100912.84;;;14.94
13304;BMP280;6720;51.958;4.540;2022-09-24T04:23:06;100915.25;;;15.01
13304;BMP280;6720;51.958;4.540;2022-09-24T04:25:32;100910.81;;;15.02
13304;BMP280;6720;51.958;4.540;2022-09-24T04:28:03;100887.59;;;14.87
13304;BMP280;6720;51.958;4.540;2022-09-24T04:30:30;100909.84;;;15.04
13304;BMP280;6720;51.958;4.540;2022-09-24T04:32:56;100902.00;;;15.03
13304;BMP280;6720;51.958;4.540;2022-09-24T04:35:26;100914.03;;;15.10
13304;BMP280;6720;51.958;4.540;2022-09-24T04:37:51;100911.34;;;15.11
13304;BMP280;6720;51.958;4.540;2022-09-24T04:40:17;100915.78;;;15.11
13304;BMP280;6720;51.958;4.540;2022-09-24T04:42:43;100915.66;;;15.14
13304;BMP280;6720;51.958;4.540;2022-09-24T04:45:11;100914.66;;;15.18
13304;BMP280;6720;51.958;4.540;2022-09-24T04:47:37;100913.75;;;15.19
13304;BMP280;6720;51.958;4.540;2022-09-24T04:50:05;100913.75;;;15.19
13304;BMP280;6720;51.958;4.540;2022-09-24T04:52:31;100923.28;;;15.23
13304;BMP280;6720;51.958;4.540;2022-09-24T04:54:58;100925.91;;;15.23
13304;BMP280;6720;51.958;4.540;2022-09-24T04:57:25;100926.00;;;15.20
13304;BMP280;6720;51.958;4.540;2022-09-24T04:59:51;100925.09;;;15.21
13304;BMP280;6720;51.958;4.540;2022-09-24T05:02:16;100934.03;;;15.17
13304;BMP280;6720;51.958;4.540;2022-09-24T05:04:43;100921.81;;;15.14
13304;BMP280;6720;51.958;4.540;2022-09-24T05:07:09;100924.31;;;15.19
13304;BMP280;6720;51.958;4.540;2022-09-24T05:09:35;100924.41;;;15.16
13304;BMP280;6720;51.958;4.540;2022-09-24T05:12:01;100933.22;;;15.15
13304;BMP280;6720;51.958;4.540;2022-09-24T05:14:27;100925.13;;;15.19
13304;BMP280;6720;51.958;4.540;2022-09-24T05:16:52;100927.84;;;15.18
13304;BMP280;6720;51.958;4.540;2022-09-24T05:19:18;100922.78;;;15.12
13304;BMP280;6720;51.958;4.540;2022-09-24T05:21:43;100928.84;;;15.14
13304;BMP280;6720;51.958;4.540;2022-09-24T05:24:10;100936.63;;;15.18
13304;BMP280;6720;51.958;4.540;2022-09-24T05:26:35;100932.25;;;15.17
13304;BMP280;6720;51.958;4.540;2022-09-24T05:29:19;100896.94;;;14.97
13304;BMP280;6720;51.958;4.540;2022-09-24T05:31:44;100925.28;;;15.16
13304;BMP280;6720;51.958;4.540;2022-09-24T05:34:09;100926.94;;;15.19
13304;BMP280;6720;51.958;4.540;2022-09-24T05:36:35;100922.69;;;15.15
13304;BMP280;6720;51.958;4.540;2022-09-24T05:39:02;100928.66;;;15.20
13304;BMP280;6720;51.958;4.540;2022-09-24T05:41:28;100939.16;;;15.21
13304;BMP280;6720;51.958;4.540;2022-09-24T05:43:53;100939.19;;;15.20
13304;BMP280;6720;51.958;4.540;2022-09-24T05:46:21;100939.25;;;15.18
13304;BMP280;6720;51.958;4.540;2022-09-24T05:48:46;100934.84;;;15.19
13304;BMP280;6720;51.958;4.540;2022-09-24T05:51:11;100940.06;;;15.20
13304;BMP280;6720;51.958;4.540;2022-09-24T05:53:37;100916.81;;;15.07
13304;BMP280;6720;51.958;4.540;2022-09-24T05:56:02;100940.97;;;15.19
13304;BMP280;6720;51.958;4.540;2022-09-24T05:58:27;100947.13;;;15.20
13304;BMP280;6720;51.958;4.540;2022-09-24T06:00:53;100950.44;;;15.25
13304;BMP280;6720;51.958;4.540;2022-09-24T06:03:19;100939.91;;;15.25
13304;BMP280;6720;51.958;4.540;2022-09-24T06:05:46;100943.34;;;15.27
13304;BMP280;6720;51.958;4.540;2022-09-24T06:08:13;100952.19;;;15.26
13304;BMP280;6720;51.958;4.540;2022-09-24T06:10:40;100947.00;;;15.23
13304;BMP280;6720;51.958;4.540;2022-09-24T06:13:06;100955.63;;;15.28
13304;BMP280;6720;51.958;4.540;2022-09-24T06:15:32;100958.97;;;15.33
13304;BMP280;6720;51.958;4.540;2022-09-24T06:17:59;100960.69;;;15.34
13304;BMP280;6720;51.958;4.540;2022-09-24T06:20:24;100965.03;;;15.36
13304;BMP280;6720;51.958;4.540;2022-09-24T06:22:50;100967.69;;;15.35
13304;BMP280;6720;51.958;4.540;2022-09-24T06:25:18;100968.59;;;15.35
13304;BMP280;6720;51.958;4.540;2022-09-24T06:27:43;100973.88;;;15.35
13304;BMP280;6720;51.958;4.540;2022-09-24T06:30:09;100973.91;;;15.34
13304;BMP280;6720;51.958;4.540;2022-09-24T06:32:36;100976.53;;;15.34
13304;BMP280;6720;51.958;4.540;2022-09-24T06:35:01;100971.34;;;15.31
13304;BMP280;6720;51.958;4.540;2022-09-24T06:37:27;100972.19;;;15.33
13304;BMP280;6720;51.958;4.540;2022-09-24T06:39:52;100976.94;;;15.22
13304;BMP280;6720;51.958;4.540;2022-09-24T06:42:17;100978.44;;;15.29
13304;BMP280;6720;51.958;4.540;2022-09-24T06:44:44;100981.81;;;15.34
13304;BMP280;6720;51.958;4.540;2022-09-24T06:47:10;100981.81;;;15.34
13304;BMP280;6720;51.958;4.540;2022-09-24T06:49:36;100985.28;;;15.36
13304;BMP280;6720;51.958;4.540;2022-09-24T06:52:02;100979.91;;;15.39
13304;BMP280;6720;51.958;4.540;2022-09-24T06:54:29;100984.63;;;15.28
13304;BMP280;6720;51.958;4.540;2022-09-24T06:56:54;100986.19;;;15.33
13304;BMP280;6720;51.958;4.540;2022-09-24T06:59:20;100987.03;;;15.37
13304;BMP280;6720;51.958;4.540;2022-09-24T07:01:46;100986.16;;;15.35
13304;BMP280;6720;51.958;4.540;2022-09-24T07:04:11;100982.59;;;15.37
13304;BMP280;6720;51.958;4.540;2022-09-24T07:06:37;100989.53;;;15.40
13304;BMP280;6720;51.958;4.540;2022-09-24T07:09:21;100986.78;;;15.43
13304;BMP280;6720;51.958;4.540;2022-09-24T07:11:46;100979.06;;;15.38
13304;BMP280;6720;51.958;4.540;2022-09-24T07:14:12;100995.38;;;15.23
13304;BMP280;6720;51.958;4.540;2022-09-24T07:16:39;100997.88;;;15.26
13304;BMP280;6720;51.958;4.540;2022-09-24T07:19:04;101000.69;;;15.22
13304;BMP280;6720;51.958;4.540;2022-09-24T07:21:29;101003.19;;;15.25
13304;BMP280;6720;51.958;4.540;2022-09-24T07:23:55;101003.75;;;15.36
13304;BMP280;6720;51.958;4.540;2022-09-24T07:26:20;101007.81;;;15.18
13304;BMP280;6720;51.958;4.540;2022-09-24T07:28:46;101005.91;;;15.23
13304;BMP280;6720;51.958;4.540;2022-09-24T07:31:11;101015.78;;;15.17
13304;BMP280;6720;51.958;4.540;2022-09-24T07:33:37;100998.34;;;15.13
13304;BMP280;6720;51.958;4.540;2022-09-24T07:36:06;101009.66;;;15.16
13304;BMP280;6720;51.958;4.540;2022-09-24T07:38:31;101013.91;;;15.20
13304;BMP280;6720;51.958;4.540;2022-09-24T07:40:57;101028.06;;;15.18
13304;BMP280;6720;51.958;4.540;2022-09-24T07:43:23;101020.84;;;14.97
13304;BMP280;6720;51.958;4.540;2022-09-24T07:45:49;101030.47;;;14.98
13304;BMP280;6720;51.958;4.540;2022-09-24T07:48:14;101030.44;;;14.99
13304;BMP280;6720;51.958;4.540;2022-09-24T07:50:41;101034.41;;;15.12
13304;BMP280;6720;51.958;4.540;2022-09-24T07:53:09;101041.31;;;14.89
13304;BMP280;6720;51.958;4.540;2022-09-24T07:55:35;101032.22;;;14.99
13304;BMP280;6720;51.958;4.540;2022-09-24T07:58:05;101040.13;;;14.99
13304;BMP280;6720;51.958;4.540;2022-09-24T08:00:33;101032.41;;;14.93
13304;BMP280;6720;51.958;4.540;2022-09-24T08:03:00;101012.66;;;14.78
13304;BMP280;6720;51.958;4.540;2022-09-24T08:05:26;101044.09;;;15.12
13304;BMP280;6720;51.958;4.540;2022-09-24T08:07:53;101011.25;;;14.94
13304;BMP280;6720;51.958;4.540;2022-09-24T08:10:20;101038.63;;;15.18
13304;BMP280;6720;51.958;4.540;2022-09-24T08:12:45;101045.97;;;15.34
13304;BMP280;6720;51.958;4.540;2022-09-24T08:15:11;101052.28;;;15.29
13304;BMP280;6720;51.958;4.540;2022-09-24T08:17:36;101058.06;;;15.41
13304;BMP280;6720;51.958;4.540;2022-09-24T08:20:02;101062.28;;;15.47
13304;BMP280;6720;51.958;4.540;2022-09-24T08:22:27;101061.25;;;15.51
13304;BMP280;6720;51.958;4.540;2022-09-24T08:24:53;101069.31;;;15.48
13304;BMP280;6720;51.958;4.540;2022-09-24T08:27:19;101063.81;;;15.54
13304;BMP280;6720;51.958;4.540;2022-09-24T08:29:45;101075.56;;;15.44
13304;BMP280;6720;51.958;4.540;2022-09-24T08:32:10;101074.38;;;15.54
13304;BMP280;6720;51.958;4.540;2022-09-24T08:34:37;101074.47;;;15.51
13304;BMP280;6720;51.958;4.540;2022-09-24T08:37:05;101086.44;;;15.61
13304;BMP280;6720;51.958;4.540;2022-09-24T08:39:31;101077.66;;;15.60
13304;BMP280;6720;51.958;4.540;2022-09-24T08:42:05;101082.00;;;15.63
13304;BMP280;6720;51.958;4.540;2022-09-24T08:44:44;101086.84;;;15.49
13304;BMP280;6720;51.958;4.540;2022-09-24T08:47:38;101057.94;;;15.46
13304;BMP280;6720;51.958;4.540;2022-09-24T08:56:08;101067.03;;;15.62
13304;BMP280;6720;51.958;4.540;2022-09-24T08:58:27;101087.59;;;15.78
13304;BMP280;6720;51.958;4.540;2022-09-24T09:03:57;101106.84;;;15.82
13304;BMP280;6720;51.958;4.540;2022-09-24T09:09:24;101101.56;;;15.82
13304;BMP280;6720;51.958;4.540;2022-09-24T09:12:03;101106.13;;;15.77
13304;BMP280;6720;51.958;4.540;2022-09-24T09:17:01;101110.91;;;15.66
13304;BMP280;6720;51.958;4.540;2022-09-24T09:19:32;101113.31;;;15.73
13304;BMP280;6720;51.958;4.540;2022-09-24T09:22:10;101106.94;;;15.79
13304;BMP280;6720;51.958;4.540;2022-09-24T09:24:40;101113.03;;;15.81
13304;BMP280;6720;51.958;4.540;2022-09-24T09:27:14;101114.88;;;15.79
13304;BMP280;6720;51.958;4.540;2022-09-24T09:29:45;101114.78;;;15.82
13304;BMP280;6720;51.958;4.540;2022-09-24T09:35:27;101123.06;;;15.96
13304;BMP280;6720;51.958;4.540;2022-09-24T09:43:14;101097.38;;;15.76
13304;BMP280;6720;51.958;4.540;2022-09-24T09:46:08;101124.50;;;15.80
13304;BMP280;6720;51.958;4.540;2022-09-24T09:48:45;101126.53;;;15.72
13304;BMP280;6720;51.958;4.540;2022-09-24T09:51:16;101087.97;;;15.68
13304;BMP280;6720;51.958;4.540;2022-09-24T09:53:53;101134.03;;;15.84
13304;BMP280;6720;51.958;4.540;2022-09-24T09:56:22;101128.97;;;15.78
13304;BMP280;6720;51.958;4.540;2022-09-24T09:58:48;101127.66;;;15.91
13304;BMP280;6720;51.958;4.540;2022-09-24T10:01:19;101129.59;;;15.86
13304;BMP280;6720;51.958;4.540;2022-09-24T10:06:26;101115.22;;;15.68
13304;BMP280;6720;51.958;4.540;2022-09-24T10:08:52;101125.81;;;15.93
13304;BMP280;6720;51.958;4.540;2022-09-24T10:11:18;101135.84;;;16.08
13304;BMP280;6720;51.958;4.540;2022-09-24T10:13:44;101129.34;;;16.18
13304;BMP280;6720;51.958;4.540;2022-09-24T10:16:11;101075.03;;;15.85
13304;BMP280;6720;51.958;4.540;2022-09-24T10:18:48;101136.94;;;16.27
13304;BMP280;6720;51.958;4.540;2022-09-24T10:21:25;101130.41;;;16.12
13304;BMP280;6720;51.958;4.540;2022-09-24T10:23:59;101106.63;;;15.88
13304;BMP280;6720;51.958;4.540;2022-09-24T10:26:36;101140.13;;;16.12
13304;BMP280;6720;51.958;4.540;2022-09-24T10:29:02;101144.94;;;16.25
13304;BMP280;6720;51.958;4.540;2022-09-24T10:31:46;101143.84;;;16.31
13304;BMP280;6720;51.958;4.540;2022-09-24T10:34:23;101138.66;;;16.28
13304;BMP280;6720;51.958;4.540;2022-09-24T10:36:57;101125.91;;;16.16
13304;BMP280;6720;51.958;4.540;2022-09-24T10:39:22;101155.59;;;16.22
13304;BMP280;6720;51.958;4.540;2022-09-24T10:41:53;101134.22;;;16.04
13304;BMP280;6720;51.958;4.540;2022-09-24T10:44:20;101146.34;;;16.09
13304;BMP280;6720;51.958;4.540;2022-09-24T10:47:02;101157.59;;;16.16
13304;BMP280;6720;51.958;4.540;2022-09-24T11:00:20;101119.44;;;16.23
13304;BMP280;6720;51.958;4.540;2022-09-24T11:05:33;101133.00;;;16.38
13304;BMP280;6720;51.958;4.540;2022-09-24T11:11:05;101165.22;;;16.49
13304;BMP280;6720;51.958;4.540;2022-09-24T11:14:54;101164.72;;;16.63
13304;BMP280;6720;51.958;4.540;2022-09-24T11:17:04;101168.44;;;16.57
13304;BMP280;6720;51.958;4.540;2022-09-24T11:22:15;101166.91;;;16.75
13304;BMP280;6720;51.958;4.540;2022-09-24T11:28:35;101176.13;;;16.65
13304;BMP280;6720;51.958;4.540;2022-09-24T11:36:32;101150.81;;;16.81
13304;BMP280;6720;51.958;4.540;2022-09-24T11:39:34;101171.22;;;16.77
13304;BMP280;6720;51.958;4.540;2022-09-24T11:42:09;101176.22;;;16.85
13304;BMP280;6720;51.958;4.540;2022-09-24T11:50:54;101187.09;;;16.53
13304;BMP280;6720;51.958;4.540;2022-09-24T11:53:32;101183.69;;;16.74
13304;BMP280;6720;51.958;4.540;2022-09-24T11:56:04;101182.66;;;16.78
13304;BMP280;6720;51.958;4.540;2022-09-24T12:01:17;101183.75;;;16.72
13304;BMP280;6720;51.958;4.540;2022-09-24T12:04:24;101182.44;;;16.61
13304;BMP280;6720;51.958;4.540;2022-09-24T12:06:59;101181.56;;;16.60
13304;BMP280;6720;51.958;4.540;2022-09-24T12:09:38;101186.56;;;16.68
13304;BMP280;6720;51.958;4.540;2022-09-24T12:12:14;101161.84;;;16.46
13304;BMP280;6720;51.958;4.540;2022-09-24T12:17:49;101194.69;;;16.63
13304;BMP280;6720;51.958;4.540;2022-09-24T12:22:47;101189.66;;;16.79
13304;BMP280;6720;51.958;4.540;2022-09-24T12:25:13;101189.34;;;16.88
13304;BMP280;6720;51.958;4.540;2022-09-24T12:27:39;101194.47;;;16.68
13304;BMP280;6720;51.958;4.540;2022-09-24T12:33:11;101185.25;;;16.79
13304;BMP280;6720;51.958;4.540;2022-09-24T12:35:57;101189.19;;;16.68
13304;BMP280;6720;51.958;4.540;2022-09-24T12:38:40;101192.69;;;16.93
13304;BMP280;6720;51.958;4.540;2022-09-24T12:41:25;101166.84;;;16.53
13304;BMP280;6720;51.958;4.540;2022-09-24T12:44:01;101195.41;;;16.67
13304;BMP280;6720;51.958;4.540;2022-09-24T12:48:55;101187.16;;;16.99
13304;BMP280;6720;51.958;4.540;2022-09-24T12:51:21;101188.94;;;16.98
13304;BMP280;6720;51.958;4.540;2022-09-24T12:54:35;101199.38;;;17.03
13304;BMP280;6720;51.958;4.540;2022-09-24T12:57:12;101199.38;;;17.03
13304;BMP280;6720;51.958;4.540;2022-09-24T12:59:54;101194.06;;;16.80
13304;BMP280;6720;51.958;4.540;2022-09-24T13:02:22;101167.84;;;16.74
13304;BMP280;6720;51.958;4.540;2022-09-24T13:07:33;101195.56;;;17.10
13304;BMP280;6720;51.958;4.540;2022-09-24T13:12:40;101182.66;;;17.24
13304;BMP280;6720;51.958;4.540;2022-09-24T13:15:15;101165.28;;;17.17
13304;BMP280;6720;51.958;4.540;2022-09-24T13:17:43;101195.34;;;17.37
13304;BMP280;6720;51.958;4.540;2022-09-24T13:20:23;101186.16;;;17.47
13304;BMP280;6720;51.958;4.540;2022-09-24T13:26:03;101189.19;;;17.60
13304;BMP280;6720;51.958;4.540;2022-09-24T13:33:58;101186.28;;;17.66
13304;BMP280;6720;51.958;4.540;2022-09-24T13:36:32;101163.50;;;17.62
13304;BMP280;6720;51.958;4.540;2022-09-24T13:39:06;101166.91;;;17.44
13304;BMP280;6720;51.958;4.540;2022-09-24T13:44:45;101207.34;;;17.69
13304;BMP280;6720;51.958;4.540;2022-09-24T13:49:48;101183.47;;;17.49
13304;BMP280;6720;51.958;4.540;2022-09-24T13:52:31;101207.00;;;17.78
13304;BMP280;6720;51.958;4.540;2022-09-24T13:55:02;101202.31;;;17.63
13304;BMP280;6720;51.958;4.540;2022-09-24T13:57:41;101167.91;;;17.40
13304;BMP280;6720;51.958;4.540;2022-09-24T14:02:35;101215.91;;;17.54
13304;BMP280;6720;51.958;4.540;2022-09-24T14:05:02;101210.88;;;17.69
13304;BMP280;6720;51.958;4.540;2022-09-24T14:07:31;101203.41;;;17.57
13304;BMP280;6720;51.958;4.540;2022-09-24T14:10:15;101209.06;;;17.70
13304;BMP280;6720;51.958;4.540;2022-09-24T14:12:41;101208.59;;;17.82
13304;BMP280;6720;51.958;4.540;2022-09-24T14:15:13;101210.19;;;17.86
13304;BMP280;6720;51.958;4.540;2022-09-24T14:17:39;101208.03;;;17.95
13304;BMP280;6720;51.958;4.540;2022-09-24T14:20:05;101217.38;;;18.04
13304;BMP280;6720;51.958;4.540;2022-09-24T14:22:36;101172.75;;;17.73
13304;BMP280;6720;51.958;4.540;2022-09-24T14:25:09;101168.34;;;17.94
13304;BMP280;6720;51.958;4.540;2022-09-24T14:27:43;101183.19;;;17.98
13304;BMP280;6720;51.958;4.540;2022-09-24T14:30:23;101189.84;;;18.08
13304;BMP280;6720;51.958;4.540;2022-09-24T14:32:59;101188.13;;;17.85
13304;BMP280;6720;51.958;4.540;2022-09-24T14:35:33;101221.34;;;18.14
13304;BMP280;6720;51.958;4.540;2022-09-24T14:38:10;101214.97;;;17.98
13304;BMP280;6720;51.958;4.540;2022-09-24T14:43:16;101206.69;;;18.05
13304;BMP280;6720;51.958;4.540;2022-09-24T14:45:42;101221.47;;;18.11
13304;BMP280;6720;51.958;4.540;2022-09-24T14:48:30;101227.53;;;18.14
13304;BMP280;6720;51.958;4.540;2022-09-24T14:50:55;101234.00;;;18.07
13304;BMP280;6720;51.958;4.540;2022-09-24T14:53:27;101216.41;;;18.06
13304;BMP280;6720;51.958;4.540;2022-09-24T14:55:54;101233.91;;;18.31
13304;BMP280;6720;51.958;4.540;2022-09-24T15:01:12;101236.47;;;19.12
13304;BMP280;6720;51.958;4.540;2022-09-24T15:03:50;101235.06;;;19.24
13304;BMP280;6720;51.958;4.540;2022-09-24T15:06:21;101233.00;;;19.30
13304;BMP280;6720;51.958;4.540;2022-09-24T15:09:22;101235.13;;;19.78
13304;BMP280;6720;51.958;4.540;2022-09-24T15:11:49;101229.59;;;19.64
13304;BMP280;6720;51.958;4.540;2022-09-24T15:16:40;101242.81;;;19.65
13304;BMP280;6720;51.958;4.540;2022-09-24T15:21:32;101229.47;;;19.85
13304;BMP280;6720;51.958;4.540;2022-09-24T15:23:58;101230.97;;;19.91
13304;BMP280;6720;51.958;4.540;2022-09-24T15:26:32;101238.94;;;19.91
13304;BMP280;6720;51.958;4.540;2022-09-24T15:28:59;101230.75;;;19.58
13304;BMP280;6720;51.958;4.540;2022-09-24T15:31:25;101235.44;;;19.72
13304;BMP280;6720;51.958;4.540;2022-09-24T15:33:51;101232.53;;;19.76
13304;BMP280;6720;51.958;4.540;2022-09-24T15:36:17;101241.56;;;19.55
13304;BMP280;6720;51.958;4.540;2022-09-24T15:38:46;101236.94;;;19.59
13304;BMP280;6720;51.958;4.540;2022-09-24T15:41:12;101248.69;;;19.90
13304;BMP280;6720;51.958;4.540;2022-09-24T15:43:37;101241.50;;;20.45
13304;BMP280;6720;51.958;4.540;2022-09-24T15:46:03;101247.06;;;20.57
13304;BMP280;6720;51.958;4.540;2022-09-24T15:48:28;101250.19;;;20.99
13304;BMP280;6720;51.958;4.540;2022-09-24T15:50:54;101249.34;;;21.14
13304;BMP280;6720;51.958;4.540;2022-09-24T15:53:20;101249.25;;;21.64
13304;BMP280;6720;51.958;4.540;2022-09-24T15:55:54;101260.19;;;22.06
13304;BMP280;6720;51.958;4.540;2022-09-24T15:58:21;101261.13;;;22.80
13304;BMP280;6720;51.958;4.540;2022-09-24T16:00:47;101261.94;;;23.24
13304;BMP280;6720;51.958;4.540;2022-09-24T16:03:33;101275.44;;;23.07
13304;BMP280;6720;51.958;4.540;2022-09-24T16:05:58;101268.59;;;23.59
13304;BMP280;6720;51.958;4.540;2022-09-24T16:08:25;101273.34;;;23.68
13304;BMP280;6720;51.958;4.540;2022-09-24T16:10:51;101274.50;;;23.50
13304;BMP280;6720;51.958;4.540;2022-09-24T16:13:18;101277.59;;;23.30
13304;BMP280;6720;51.958;4.540;2022-09-24T16:15:44;101275.47;;;23.35
13304;BMP280;6720;51.958;4.540;2022-09-24T16:18:15;101255.56;;;22.69
13304;BMP280;6720;51.958;4.540;2022-09-24T16:20:42;101281.44;;;22.08
13304;BMP280;6720;51.958;4.540;2022-09-24T16:23:14;101275.47;;;21.23
13304;BMP280;6720;51.958;4.540;2022-09-24T16:25:52;101275.66;;;20.86
13304;BMP280;6720;51.958;4.540;2022-09-24T16:28:18;101274.91;;;20.67